Terminal Aerodrome Forecast
Issued by NWS

Home | Current Version | Previous Version | Text Only | Print | Product List | Glossary On
Versions: 1 2 3 4 5 6 7 8 9 10 11 12 13 14 15 16 17 18 19 20 21 22 23 24 25 26
000
FTUS45 KLKN 230520
TAFELY
TAF
KELY 230520Z 2306/2406 17006KT P6SM VCSH SCT060 BKN080
     FM231500 VRB06KT P6SM BKN080
     FM232200 08011KT P6SM VCTS SCT050 BKN070CB=

USA.gov is the U.S. government's official web portal to all federal, state and local government web resources and services.